Time;durP1;ratioP1;P1;durP2;ratioP2;P2;SDS_P1;SDS_P2;PMS_P1;PMS_P2;Temp;Humidity;BMP_temperature;BMP_pressure;BME280_temperature;BME280_humidity;BME280_pressure;Samples;Min_cycle;Max_cycle;Signal;HPM_P1;HPM_P2
2022/04/27 00:01:45;;;;;;;13.18;7.43;;;7.40;99.90;;;;;;5076088;28;20021;-59
2022/04/27 00:04:10;;;;;;;16.20;8.45;;;7.30;99.90;;;;;;5075827;28;20036;-53
2022/04/27 00:06:36;;;;;;;12.50;7.50;;;7.30;99.90;;;;;;5076236;28;20021;-57
2022/04/27 00:09:03;;;;;;;12.73;7.32;;;7.30;99.90;;;;;;5057683;28;20028;-57
2022/04/27 00:11:29;;;;;;;14.63;6.95;;;7.20;99.90;;;;;;5057599;28;20028;-56
2022/04/27 00:13:56;;;;;;;12.50;6.95;;;7.20;99.90;;;;;;5057998;28;20029;-57
2022/04/27 00:16:22;;;;;;;13.38;6.90;;;7.10;99.90;;;;;;5075744;28;20024;-59
2022/04/27 00:18:47;;;;;;;14.40;7.45;;;7.10;99.90;;;;;;5075531;28;20108;-60
2022/04/27 00:21:13;;;;;;;14.95;7.60;;;7.00;99.90;;;;;;5075670;28;20052;-60
2022/04/27 00:23:39;;;;;;;13.73;8.27;;;6.90;99.90;;;;;;5058190;28;20028;-59
2022/04/27 00:26:05;;;;;;;13.98;7.80;;;6.90;99.90;;;;;;5057389;28;20154;-57
2022/04/27 00:28:31;;;;;;;13.88;8.02;;;6.90;99.90;;;;;;5057763;28;20036;-59
2022/04/27 00:30:56;;;;;;;14.90;7.90;;;6.90;99.90;;;;;;5075275;28;20487;-60
2022/04/27 00:33:22;;;;;;;11.82;6.57;;;6.80;99.90;;;;;;5057705;28;20025;-57
2022/04/27 00:35:47;;;;;;;12.57;6.90;;;6.80;99.90;;;;;;5075557;28;20025;-58
2022/04/27 00:38:13;;;;;;;11.57;6.65;;;6.70;99.90;;;;;;5075498;28;20024;-59
2022/04/27 00:40:39;;;;;;;11.40;7.45;;;6.70;99.90;;;;;;5057091;28;20062;-57
2022/04/27 00:43:05;;;;;;;13.23;6.82;;;6.60;99.90;;;;;;5075408;28;20064;-59
2022/04/27 00:45:30;;;;;;;16.05;8.50;;;6.60;99.90;;;;;;5057013;28;20078;-60
2022/04/27 00:47:56;;;;;;;17.38;8.75;;;6.50;99.90;;;;;;5057426;28;20070;-57
2022/04/27 00:50:22;;;;;;;14.60;8.00;;;6.50;99.90;;;;;;5074909;28;20114;-59
2022/04/27 00:52:48;;;;;;;11.85;7.03;;;6.40;99.90;;;;;;5074907;28;20029;-59
2022/04/27 00:55:14;;;;;;;12.02;6.72;;;6.30;99.90;;;;;;5056908;28;20101;-59
2022/04/27 00:57:40;;;;;;;11.77;6.88;;;6.30;99.90;;;;;;5074852;28;20028;-59
2022/04/27 01:00:07;;;;;;;9.85;6.35;;;6.20;99.90;;;;;;5074934;28;20032;-59
2022/04/27 01:02:34;;;;;;;12.70;6.15;;;6.30;99.90;;;;;;5056527;28;20024;-59
2022/04/27 01:05:00;;;;;;;11.65;5.70;;;6.30;99.90;;;;;;5074606;28;20029;-59
2022/04/27 01:07:28;;;;;;;13.02;6.47;;;6.30;99.90;;;;;;5056842;28;20060;-59
2022/04/27 01:09:55;;;;;;;11.43;6.30;;;6.40;99.90;;;;;;5056854;28;20017;-59
2022/04/27 01:12:21;;;;;;;12.77;6.15;;;6.40;99.90;;;;;;5056942;28;20027;-55
2022/04/27 01:14:48;;;;;;;12.68;6.47;;;6.40;99.90;;;;;;5056845;28;20031;-60
2022/04/27 01:17:14;;;;;;;11.65;6.90;;;6.40;99.90;;;;;;5057151;28;20111;-56
2022/04/27 01:19:40;;;;;;;11.85;6.85;;;6.40;99.90;;;;;;5057206;28;20028;-56
2022/04/27 01:22:06;;;;;;;11.75;6.05;;;6.50;99.90;;;;;;5056503;28;20036;-60
2022/04/27 01:24:32;;;;;;;11.68;6.72;;;6.50;99.90;;;;;;5074250;28;20573;-59
2022/04/27 01:26:58;;;;;;;12.02;6.82;;;6.60;99.90;;;;;;5074448;28;20099;-59
2022/04/27 01:29:23;;;;;;;15.10;7.60;;;6.60;99.90;;;;;;5056568;28;20024;-59
2022/04/27 01:31:51;;;;;;;18.50;7.78;;;6.60;99.90;;;;;;5074184;28;20021;-57
2022/04/27 01:34:17;;;;;;;19.65;8.68;;;6.60;99.90;;;;;;5074182;28;20031;-59
2022/04/27 01:36:42;;;;;;;30.17;8.45;;;6.60;99.90;;;;;;5074101;28;20032;-58
2022/04/27 01:39:08;;;;;;;20.88;10.23;;;6.70;99.90;;;;;;5073941;28;20024;-58
2022/04/27 01:41:36;;;;;;;29.48;9.45;;;6.70;99.90;;;;;;5055933;28;20028;-58
2022/04/27 01:44:02;;;;;;;19.75;9.32;;;6.60;99.90;;;;;;5055872;28;20032;-60
2022/04/27 01:46:28;;;;;;;19.92;8.73;;;6.60;99.90;;;;;;5073713;28;20078;-58
2022/04/27 01:48:55;;;;;;;16.58;7.68;;;6.60;99.90;;;;;;5056908;28;20108;-57
2022/04/27 01:54:17;;;;;;;14.18;7.25;;;6.50;99.90;;;;;;5074599;28;20039;-60
2022/04/27 01:56:48;;;;;;;13.15;7.00;;;6.40;99.90;;;;;;5055720;28;20031;-60
2022/04/27 01:59:15;;;;;;;10.68;6.40;;;6.30;99.90;;;;;;5074315;28;20028;-60
2022/04/27 02:01:41;;;;;;;11.20;6.63;;;6.20;99.90;;;;;;5055590;28;20024;-60
2022/04/27 02:04:07;;;;;;;17.80;7.43;;;6.10;99.90;;;;;;5073606;28;20030;-59
2022/04/27 02:06:36;;;;;;;14.05;7.20;;;6.10;99.90;;;;;;5056290;28;20060;-58
2022/04/27 02:09:06;;;;;;;11.60;7.18;;;6.00;99.90;;;;;;5073510;28;20484;-59
2022/04/27 02:11:34;;;;;;;10.77;6.95;;;6.00;99.90;;;;;;5055664;28;20039;-58
2022/04/27 02:14:01;;;;;;;10.43;6.95;;;6.00;99.90;;;;;;5072846;28;20032;-58
2022/04/27 02:16:28;;;;;;;10.07;6.38;;;5.90;99.90;;;;;;5073278;28;20052;-59
2022/04/27 02:18:55;;;;;;;10.32;6.78;;;5.90;99.90;;;;;;5073144;28;20016;-59
2022/04/27 02:21:21;;;;;;;10.38;6.47;;;6.00;99.90;;;;;;5073198;28;20078;-58
2022/04/27 02:23:49;;;;;;;10.10;6.88;;;6.00;99.90;;;;;;5073394;28;20020;-58
2022/04/27 02:26:15;;;;;;;9.32;6.15;;;6.00;99.90;;;;;;5072990;28;20056;-60
2022/04/27 02:28:41;;;;;;;11.65;6.68;;;6.00;99.90;;;;;;5055416;28;20052;-60
2022/04/27 02:31:07;;;;;;;9.52;6.40;;;6.00;99.90;;;;;;5073022;28;20085;-60
2022/04/27 02:33:33;;;;;;;13.25;7.05;;;5.90;99.90;;;;;;5055099;28;20056;-57
2022/04/27 02:35:59;;;;;;;12.00;6.72;;;5.90;99.90;;;;;;5073065;28;20514;-60
2022/04/27 02:38:26;;;;;;;11.25;6.43;;;5.90;99.90;;;;;;5055136;28;20024;-60
2022/04/27 02:40:52;;;;;;;12.25;6.97;;;5.90;99.90;;;;;;5072927;28;20104;-58
2022/04/27 02:43:18;;;;;;;9.95;6.18;;;5.80;99.90;;;;;;5055040;28;20056;-58
2022/04/27 02:45:43;;;;;;;8.82;5.85;;;5.70;99.90;;;;;;5072784;28;20021;-57
2022/04/27 02:48:10;;;;;;;8.65;5.70;;;5.70;99.90;;;;;;5073216;28;20047;-57
2022/04/27 02:53:21;;;;;;;8.52;6.18;;;5.60;99.90;;;;;;5073332;28;20028;-60
2022/04/27 02:55:47;;;;;;;10.05;5.95;;;5.50;99.90;;;;;;5072688;28;20017;-58
2022/04/27 02:58:12;;;;;;;9.00;6.38;;;5.50;99.90;;;;;;5054667;28;20435;-57
2022/04/27 03:00:39;;;;;;;9.98;6.80;;;5.50;99.90;;;;;;5054890;28;20031;-60
2022/04/27 03:03:07;;;;;;;10.93;5.88;;;5.40;99.90;;;;;;5054707;28;20047;-60
2022/04/27 03:05:33;;;;;;;11.57;7.18;;;5.40;99.90;;;;;;5054838;28;20029;-60
2022/04/27 03:07:58;;;;;;;13.10;6.88;;;5.40;99.90;;;;;;5054567;28;20016;-60
2022/04/27 03:10:24;;;;;;;11.40;6.85;;;5.40;99.90;;;;;;5054686;28;20050;-57
2022/04/27 03:12:49;;;;;;;10.38;6.22;;;5.40;99.90;;;;;;5055287;28;20024;-60
2022/04/27 03:15:15;;;;;;;9.40;6.03;;;5.30;99.90;;;;;;5072570;28;20020;-60
2022/04/27 03:17:40;;;;;;;8.95;5.60;;;5.30;99.90;;;;;;5072484;28;20024;-60
2022/04/27 03:20:07;;;;;;;11.60;6.13;;;5.30;99.90;;;;;;5055283;28;20044;-58
2022/04/27 03:22:32;;;;;;;9.60;6.20;;;5.30;99.90;;;;;;5072442;28;20368;-60
2022/04/27 03:24:58;;;;;;;10.13;6.13;;;5.20;99.90;;;;;;5054892;28;20099;-60
2022/04/27 03:27:24;;;;;;;9.50;6.07;;;5.20;99.90;;;;;;5076732;28;20035;-60
2022/04/27 03:29:49;;;;;;;9.57;5.78;;;5.20;99.90;;;;;;5058410;28;20029;-57
2022/04/27 03:32:15;;;;;;;10.25;6.50;;;5.20;99.90;;;;;;5076414;28;20021;-60
2022/04/27 03:34:41;;;;;;;8.95;5.82;;;5.10;99.90;;;;;;5058305;28;20024;-60
2022/04/27 03:37:07;;;;;;;13.30;6.88;;;5.10;99.90;;;;;;5058446;28;20074;-59
2022/04/27 03:39:33;;;;;;;11.20;6.28;;;5.10;99.90;;;;;;5058297;28;20047;-60
2022/04/27 03:41:59;;;;;;;14.48;7.32;;;5.10;99.90;;;;;;5076452;28;20021;-60
2022/04/27 03:44:24;;;;;;;10.65;6.28;;;5.00;99.90;;;;;;5058162;28;20471;-60
2022/04/27 03:46:50;;;;;;;11.80;6.60;;;5.00;99.90;;;;;;5058117;28;20024;-56
2022/04/27 03:49:16;;;;;;;10.15;6.38;;;5.00;99.90;;;;;;5076068;28;20020;-58
2022/04/27 03:51:41;;;;;;;11.27;6.07;;;5.00;99.90;;;;;;5075980;28;20035;-60
2022/04/27 03:54:07;;;;;;;13.88;6.72;;;5.00;99.90;;;;;;5058272;28;20052;-60
2022/04/27 03:56:32;;;;;;;10.73;6.38;;;5.00;99.90;;;;;;5057989;28;20024;-59
2022/04/27 03:58:59;;;;;;;12.23;6.82;;;5.00;99.90;;;;;;5058319;28;20058;-60
2022/04/27 04:01:24;;;;;;;10.55;6.90;;;5.00;99.90;;;;;;5076255;28;20092;-57
2022/04/27 04:03:50;;;;;;;11.45;6.30;;;4.90;99.90;;;;;;5057721;28;20056;-59
2022/04/27 04:06:16;;;;;;;15.20;7.22;;;5.00;99.90;;;;;;5075885;28;20032;-59
2022/04/27 04:08:41;;;;;;;13.48;7.90;;;5.00;99.90;;;;;;5075827;28;20024;-59
2022/04/27 04:11:07;;;;;;;14.38;7.47;;;5.00;99.90;;;;;;5058197;28;20115;-57
2022/04/27 04:13:33;;;;;;;13.05;7.45;;;4.90;99.90;;;;;;5075742;28;20021;-56
2022/04/27 04:15:58;;;;;;;14.07;7.65;;;4.90;99.90;;;;;;5057645;28;20028;-59
2022/04/27 04:18:24;;;;;;;12.30;7.03;;;5.00;99.90;;;;;;5075533;28;20048;-58
2022/04/27 04:20:50;;;;;;;12.43;7.15;;;5.00;99.90;;;;;;5057437;28;20024;-60
2022/04/27 04:23:15;;;;;;;10.23;6.50;;;5.00;99.90;;;;;;5057738;28;20020;-60
2022/04/27 04:28:31;;;;;;;12.73;5.82;;;5.00;99.90;;;;;;5075659;28;20035;-59
2022/04/27 04:31:04;;;;;;;12.80;6.50;;;5.00;99.90;;;;;;5075425;28;20024;-57
2022/04/27 04:33:30;;;;;;;12.13;6.80;;;5.10;99.90;;;;;;5058141;28;20053;-58
2022/04/27 04:35:57;;;;;;;12.13;6.13;;;5.10;99.90;;;;;;5058683;28;20052;-60
2022/04/27 04:38:23;;;;;;;17.63;8.15;;;5.20;99.90;;;;;;5057172;28;20021;-60
2022/04/27 04:40:49;;;;;;;24.92;9.90;;;5.20;99.90;;;;;;5075699;28;20027;-57
2022/04/27 04:43:15;;;;;;;18.13;8.00;;;5.20;99.90;;;;;;5075696;28;20025;-59
2022/04/27 04:45:41;;;;;;;20.85;8.15;;;5.30;99.90;;;;;;5075667;28;20047;-60
2022/04/27 04:48:08;;;;;;;10.30;6.30;;;5.30;99.90;;;;;;5075666;28;20025;-60
2022/04/27 04:50:35;;;;;;;14.63;7.35;;;5.40;99.90;;;;;;5075807;28;20020;-60
2022/04/27 04:53:00;;;;;;;9.32;5.75;;;5.50;99.90;;;;;;5057634;28;20502;-57
2022/04/27 04:55:26;;;;;;;7.60;5.20;;;5.60;99.90;;;;;;5057645;28;20047;-60
2022/04/27 04:57:52;;;;;;;8.98;5.57;;;5.70;99.90;;;;;;5075469;28;20500;-58
2022/04/27 05:00:17;;;;;;;7.22;5.07;;;5.90;99.90;;;;;;5075364;28;20024;-60
2022/04/27 05:02:44;;;;;;;7.03;5.03;;;6.20;99.90;;;;;;5075676;28;20028;-60
2022/04/27 05:05:10;;;;;;;6.35;4.15;;;6.50;99.90;;;;;;5075521;28;20119;-57
2022/04/27 05:07:35;;;;;;;5.00;4.07;;;6.90;99.90;;;;;;5075206;28;20107;-60
2022/04/27 05:10:02;;;;;;;7.00;4.50;;;7.30;99.90;;;;;;5075238;28;20016;-60
2022/04/27 05:12:28;;;;;;;7.57;4.50;;;7.60;99.90;;;;;;5075239;28;20111;-60
2022/04/27 05:14:53;;;;;;;4.57;3.78;;;8.10;99.90;;;;;;5057242;28;20090;-58
2022/04/27 05:17:19;;;;;;;8.60;3.88;;;8.40;99.90;;;;;;5057286;28;20021;-61
2022/04/27 05:19:45;;;;;;;7.82;4.60;;;8.70;99.90;;;;;;5075886;28;20031;-61
2022/04/27 05:22:10;;;;;;;5.90;3.72;;;9.00;99.90;;;;;;5074995;28;20198;-60
2022/04/27 05:24:36;;;;;;;7.65;3.95;;;9.30;99.90;;;;;;5075037;28;20025;-60
2022/04/27 05:27:02;;;;;;;4.57;3.97;;;9.60;99.90;;;;;;5074841;28;20029;-59
2022/04/27 05:32:12;;;;;;;5.20;3.90;;;10.30;99.90;;;;;;5075158;28;20058;-61
2022/04/27 05:34:38;;;;;;;6.00;4.18;;;10.60;99.90;;;;;;5074728;28;20020;-59
2022/04/27 05:37:04;;;;;;;4.85;4.05;;;10.80;99.90;;;;;;5074679;28;20029;-60
2022/04/27 05:39:30;;;;;;;5.68;4.22;;;11.30;99.90;;;;;;5074637;28;20483;-59
2022/04/27 05:41:56;;;;;;;5.78;4.75;;;11.70;99.90;;;;;;5056491;28;20024;-60
2022/04/27 05:44:23;;;;;;;4.30;3.88;;;12.10;99.90;;;;;;5056584;28;20025;-60
2022/04/27 05:46:50;;;;;;;5.65;4.45;;;12.50;99.90;;;;;;5074402;28;20020;-60
2022/04/27 05:49:16;;;;;;;5.78;4.43;;;12.90;99.90;;;;;;5055561;28;20025;-60
2022/04/27 05:51:42;;;;;;;7.25;4.78;;;13.10;99.90;;;;;;5056470;28;20040;-59
2022/04/27 05:54:07;;;;;;;5.90;4.32;;;13.40;99.90;;;;;;5074373;28;20020;-61
2022/04/27 05:56:33;;;;;;;6.55;4.47;;;13.70;99.90;;;;;;5056486;28;20066;-60
2022/04/27 05:59:00;;;;;;;5.03;3.95;;;14.20;99.90;;;;;;5056480;28;20027;-59
2022/04/27 06:01:25;;;;;;;6.57;5.00;;;14.60;99.90;;;;;;5074166;28;20025;-57
2022/04/27 06:03:53;;;;;;;5.35;4.60;;;15.10;99.90;;;;;;5074408;28;20035;-61
2022/04/27 06:06:19;;;;;;;5.55;4.88;;;15.50;99.90;;;;;;5074021;28;20107;-58
2022/04/27 06:08:45;;;;;;;7.40;5.40;;;16.00;99.90;;;;;;5056127;28;20032;-59
2022/04/27 06:11:11;;;;;;;6.57;5.38;;;16.30;99.90;;;;;;5056025;28;20024;-59
2022/04/27 06:13:36;;;;;;;6.95;5.35;;;16.50;99.90;;;;;;5056364;28;20021;-61
2022/04/27 06:16:02;;;;;;;7.82;6.38;;;16.90;99.90;;;;;;5055984;28;20048;-60
2022/04/27 06:18:28;;;;;;;8.70;7.18;;;17.40;99.90;;;;;;5056060;28;20028;-59
2022/04/27 06:20:53;;;;;;;8.98;6.97;;;17.70;99.90;;;;;;5055856;28;20399;-61
2022/04/27 06:23:19;;;;;;;12.57;8.50;;;17.60;99.90;;;;;;5055921;28;20116;-60
2022/04/27 06:25:47;;;;;;;11.10;8.63;;;17.90;99.90;;;;;;5056058;28;20024;-59
2022/04/27 06:28:13;;;;;;;15.07;8.35;;;18.00;99.90;;;;;;5056211;28;20024;-60
2022/04/27 06:30:39;;;;;;;9.68;7.22;;;18.60;99.90;;;;;;5056044;28;20029;-59
2022/04/27 06:33:05;;;;;;;10.00;8.32;;;19.20;99.90;;;;;;5073661;28;20024;-61
2022/04/27 06:35:31;;;;;;;11.40;9.00;;;19.40;99.90;;;;;;5074245;28;20383;-61
2022/04/27 06:37:57;;;;;;;10.93;8.43;;;19.90;99.90;;;;;;5073908;28;20024;-60
2022/04/27 06:40:22;;;;;;;10.32;8.73;;;20.60;99.90;;;;;;5055634;28;20020;-60
2022/04/27 06:42:48;;;;;;;8.90;7.40;;;20.30;99.90;;;;;;5055593;28;20032;-60
2022/04/27 06:45:14;;;;;;;10.38;7.70;;;20.70;99.90;;;;;;5055635;28;20077;-61
2022/04/27 06:47:39;;;;;;;9.25;7.97;;;21.20;99.90;;;;;;5056099;28;20124;-62
2022/04/27 06:50:06;;;;;;;8.65;7.30;;;22.00;99.90;;;;;;5055871;28;20459;-62
2022/04/27 06:52:39;;;;;;;8.60;7.28;;;22.50;99.90;;;;;;5055379;28;20043;-61
2022/04/27 06:55:04;;;;;;;10.30;7.80;;;23.10;99.90;;;;;;5055461;28;20467;-62
2022/04/27 06:57:30;;;;;;;11.25;7.00;;;23.50;99.90;;;;;;5055756;28;20035;-62
2022/04/27 06:59:56;;;;;;;12.05;8.55;;;24.00;99.90;;;;;;5073601;28;20107;-61
2022/04/27 07:02:21;;;;;;;10.82;8.40;;;23.10;99.90;;;;;;5055577;28;20025;-62
2022/04/27 07:04:52;;;;;;;10.15;8.27;;;23.00;99.90;;;;;;5073376;28;20044;-62
2022/04/27 07:07:17;;;;;;;11.38;8.95;;;23.60;99.90;;;;;;5056188;28;20020;-62
2022/04/27 07:09:43;;;;;;;11.95;8.85;;;24.70;98.00;;;;;;5055385;28;20024;-62
2022/04/27 07:12:09;;;;;;;8.43;7.45;;;24.30;99.90;;;;;;5073102;28;20047;-62
2022/04/27 07:14:34;;;;;;;11.85;8.20;;;24.90;99.90;;;;;;5056628;28;20016;-62
2022/04/27 07:17:01;;;;;;;12.85;9.07;;;25.30;97.10;;;;;;5056168;28;20387;-62
2022/04/27 07:19:27;;;;;;;13.13;9.98;;;25.30;95.90;;;;;;5073111;28;20017;-62
2022/04/27 07:21:52;;;;;;;14.32;9.77;;;25.70;93.90;;;;;;5073362;28;20070;-62
2022/04/27 07:24:20;;;;;;;13.85;10.40;;;24.60;94.20;;;;;;5055505;28;20468;-62
2022/04/27 07:26:46;;;;;;;9.90;7.72;;;24.90;93.60;;;;;;5055064;28;20123;-62
2022/04/27 07:29:12;;;;;;;14.98;9.38;;;25.10;97.30;;;;;;5055515;28;20025;-62
2022/04/27 07:31:37;;;;;;;14.02;9.95;;;25.10;94.40;;;;;;5055164;28;20020;-63
2022/04/27 07:34:03;;;;;;;14.00;8.48;;;26.10;94.60;;;;;;5073035;28;20017;-63
2022/04/27 07:36:28;;;;;;;13.50;10.15;;;26.60;91.60;;;;;;5055842;28;20146;-62
2022/04/27 07:38:54;;;;;;;12.65;9.50;;;26.20;89.00;;;;;;5073016;28;20029;-62
2022/04/27 07:41:20;;;;;;;10.88;8.30;;;26.70;92.10;;;;;;5054917;28;20024;-62
2022/04/27 07:43:45;;;;;;;10.77;8.95;;;26.90;91.30;;;;;;5072942;28;20028;-63
2022/04/27 07:46:11;;;;;;;10.73;8.98;;;27.20;90.30;;;;;;5055275;28;20020;-63
2022/04/27 07:48:37;;;;;;;16.25;9.70;;;27.60;86.30;;;;;;5054865;28;20020;-63
2022/04/27 07:51:05;;;;;;;11.02;8.48;;;27.20;84.40;;;;;;5055643;28;20055;-63
2022/04/27 07:53:31;;;;;;;12.05;8.65;;;27.20;85.40;;;;;;5073107;28;20027;-63
2022/04/27 07:55:56;;;;;;;12.20;9.63;;;27.90;86.70;;;;;;5072889;28;20020;-63
2022/04/27 07:58:22;;;;;;;11.23;9.02;;;27.70;82.40;;;;;;5072839;28;20043;-63
2022/04/27 08:00:48;;;;;;;11.90;9.18;;;28.80;81.50;;;;;;5072708;28;20463;-62
2022/04/27 08:03:13;;;;;;;9.90;7.95;;;28.70;75.60;;;;;;5055160;28;20020;-63
2022/04/27 08:05:39;;;;;;;8.77;7.03;;;27.40;83.70;;;;;;5072740;28;20039;-63
2022/04/27 08:08:06;;;;;;;10.30;8.75;;;28.50;82.10;;;;;;5072885;28;20036;-63
2022/04/27 08:10:32;;;;;;;11.63;7.47;;;28.70;77.00;;;;;;5055058;28;20360;-63
2022/04/27 08:12:58;;;;;;;10.85;8.27;;;29.30;75.90;;;;;;5075223;28;20027;-63
2022/04/27 08:15:25;;;;;;;11.60;9.52;;;29.60;74.60;;;;;;5058547;28;20556;-63
2022/04/27 08:17:55;;;;;;;11.02;8.90;;;30.10;71.10;;;;;;5076368;28;20021;-63
2022/04/27 08:23:12;;;;;;;13.73;9.43;;;29.60;70.90;;;;;;5076811;28;20039;-62
2022/04/27 08:25:38;;;;;;;12.70;10.05;;;27.60;72.20;;;;;;5076253;28;20107;-61
2022/04/27 08:28:08;;;;;;;14.63;10.52;;;26.70;73.30;;;;;;5058360;28;20025;-62
2022/04/27 08:30:35;;;;;;;11.90;8.85;;;25.80;74.90;;;;;;5076311;28;20051;-62
2022/04/27 08:33:02;;;;;;;15.55;10.52;;;26.00;77.00;;;;;;5075931;28;20483;-62
2022/04/27 08:35:32;;;;;;;13.73;8.75;;;26.60;75.40;;;;;;5058161;28;20020;-62
2022/04/27 08:37:58;;;;;;;14.65;9.77;;;27.20;75.50;;;;;;5075905;28;20032;-62
2022/04/27 08:40:24;;;;;;;13.32;9.13;;;27.30;74.00;;;;;;5075940;28;20051;-63
2022/04/27 08:42:54;;;;;;;11.50;9.07;;;28.00;74.90;;;;;;5057966;28;20563;-63
2022/04/27 08:45:20;;;;;;;11.45;9.50;;;27.90;73.70;;;;;;5057966;28;20031;-63
2022/04/27 08:47:48;;;;;;;12.13;9.43;;;28.50;73.80;;;;;;5057729;28;20020;-62
2022/04/27 08:50:19;;;;;;;11.70;8.88;;;29.40;69.60;;;;;;5058025;28;20123;-62
2022/04/27 08:52:47;;;;;;;11.90;8.40;;;28.20;72.10;;;;;;5075600;28;20025;-63
2022/04/27 08:55:13;;;;;;;10.35;7.88;;;29.50;72.10;;;;;;5057671;28;20020;-63
2022/04/27 08:57:40;;;;;;;12.30;8.43;;;30.40;70.80;;;;;;5057654;28;20025;-62
2022/04/27 09:00:09;;;;;;;12.30;9.75;;;31.30;68.20;;;;;;5076154;28;20040;-63
2022/04/27 09:02:35;;;;;;;11.15;9.95;;;31.40;65.60;;;;;;5057522;28;20112;-62
2022/04/27 09:05:13;;;;;;;13.57;9.52;;;29.90;65.60;;;;;;5057421;28;20043;-63
2022/04/27 09:07:46;;;;;;;11.38;8.93;;;29.50;68.30;;;;;;5057429;28;20028;-62
2022/04/27 09:10:17;;;;;;;12.77;7.57;;;30.00;68.80;;;;;;5075350;28;20082;-63
2022/04/27 09:12:51;;;;;;;11.18;8.63;;;29.70;70.20;;;;;;5057570;28;20027;-63
2022/04/27 09:15:22;;;;;;;9.98;7.32;;;30.60;66.10;;;;;;5057633;28;20026;-63
2022/04/27 09:20:48;;;;;;;12.15;9.02;;;32.30;61.80;;;;;;5075671;28;20085;-63
2022/04/27 09:23:40;;;;;;;10.65;8.70;;;30.50;63.50;;;;;;5056978;28;20082;-63
2022/04/27 09:26:27;;;;;;;12.70;8.90;;;31.40;63.40;;;;;;5057113;28;20074;-62
2022/04/27 09:28:56;;;;;;;9.13;7.78;;;30.60;62.40;;;;;;5075267;28;20078;-63
2022/04/27 09:31:31;;;;;;;11.60;8.65;;;31.10;65.40;;;;;;5074841;28;20020;-63
2022/04/27 09:34:02;;;;;;;10.57;8.18;;;30.50;61.50;;;;;;5075116;28;20043;-62
2022/04/27 09:36:28;;;;;;;14.13;8.82;;;29.60;62.50;;;;;;5075154;28;20090;-63
2022/04/27 09:38:57;;;;;;;11.10;7.68;;;29.40;65.00;;;;;;5074817;28;20021;-62
2022/04/27 09:41:44;;;;;;;11.68;8.65;;;30.00;64.00;;;;;;5074636;28;20074;-63
2022/04/27 09:44:27;;;;;;;11.85;8.18;;;31.70;61.20;;;;;;5074698;28;20028;-62
2022/04/27 09:46:53;;;;;;;8.57;7.15;;;30.40;60.90;;;;;;5074634;28;20025;-63
2022/04/27 09:49:18;;;;;;;13.82;8.52;;;30.50;62.30;;;;;;5074545;28;20066;-62
2022/04/27 09:51:49;;;;;;;10.75;8.00;;;31.20;61.60;;;;;;5074442;28;20020;-63
2022/04/27 09:54:29;;;;;;;11.38;7.40;;;32.00;60.30;;;;;;5074426;28;20414;-63
2022/04/27 09:56:57;;;;;;;9.07;6.28;;;31.70;60.30;;;;;;5057143;28;20029;-63
2022/04/27 09:59:29;;;;;;;14.00;7.53;;;31.00;61.00;;;;;;5074326;28;20035;-62
2022/04/27 10:01:59;;;;;;;12.57;7.15;;;30.80;59.80;;;;;;5074628;28;20024;-62
2022/04/27 10:04:30;;;;;;;12.25;7.13;;;29.60;61.70;;;;;;5074476;28;20517;-62
2022/04/27 10:07:00;;;;;;;10.82;7.03;;;29.60;59.60;;;;;;5074394;28;20028;-63
2022/04/27 10:09:27;;;;;;;9.52;6.90;;;29.20;61.50;;;;;;5056248;28;20020;-62
2022/04/27 10:11:58;;;;;;;9.32;5.80;;;28.80;63.50;;;;;;5056533;28;20025;-62
2022/04/27 10:14:26;;;;;;;9.35;7.32;;;29.10;62.90;;;;;;5056339;28;20558;-62
2022/04/27 10:16:56;;;;;;;10.00;5.88;;;28.30;62.50;;;;;;5056104;28;20029;-62
2022/04/27 10:19:22;;;;;;;10.47;7.30;;;28.20;62.90;;;;;;5056151;28;20085;-62
2022/04/27 10:21:56;;;;;;;10.63;6.20;;;27.90;63.60;;;;;;5073908;28;20757;-62
2022/04/27 10:24:34;;;;;;;9.00;6.35;;;27.10;63.60;;;;;;5056056;28;20035;-62
2022/04/27 10:27:23;;;;;;;10.05;6.55;;;26.00;64.90;;;;;;5056042;28;20029;-62
2022/04/27 10:30:04;;;;;;;8.55;6.07;;;25.30;66.90;;;;;;5073802;28;20028;-62
2022/04/27 10:32:36;;;;;;;;;;;25.80;66.80;;;;;;5056266;28;20021;-62
2022/04/27 10:35:19;;;;;;;9.02;5.95;;;24.90;66.60;;;;;;5055560;28;19905;-62
2022/04/27 10:37:57;;;;;;;7.65;6.20;;;24.60;68.10;;;;;;5056016;28;20031;-61
2022/04/27 10:40:29;;;;;;;6.72;5.32;;;23.60;70.00;;;;;;5073664;28;20074;-61
2022/04/27 10:43:09;;;;;;;7.97;5.47;;;23.40;69.90;;;;;;5073624;28;20097;-61
2022/04/27 10:45:40;;;;;;;10.02;5.50;;;22.80;68.60;;;;;;5055812;28;20027;-60
2022/04/27 10:48:23;;;;;;;6.20;4.72;;;22.30;69.80;;;;;;5056138;28;20035;-61
2022/04/27 10:51:00;;;;;;;7.95;5.70;;;22.00;72.80;;;;;;5056140;28;20115;-61
2022/04/27 10:53:27;;;;;;;9.45;5.05;;;21.60;72.70;;;;;;5055523;28;20020;-61
2022/04/27 10:55:59;;;;;;;8.70;5.90;;;21.30;76.60;;;;;;5056022;28;20074;-61
2022/04/27 10:58:34;;;;;;;;;;;21.40;79.20;;;;;;5057088;28;20021;-62
2022/04/27 11:01:03;;;;;;;9.35;5.60;;;22.00;77.50;;;;;;5056804;28;19912;-61
2022/04/27 11:03:35;;;;;;;9.40;5.97;;;22.30;76.90;;;;;;5073377;28;20032;-61
2022/04/27 11:06:04;;;;;;;10.35;5.90;;;22.60;75.30;;;;;;5073999;28;20047;-61
2022/04/27 11:08:35;;;;;;;7.22;5.13;;;22.90;74.40;;;;;;5055983;28;20024;-61
2022/04/27 11:11:07;;;;;;;13.30;5.25;;;23.10;76.50;;;;;;5055126;28;20021;-61
2022/04/27 11:13:33;;;;;;;;;;;23.30;74.50;;;;;;5055815;28;20020;-59
2022/04/27 11:16:10;;;;;;;7.90;4.95;;;22.50;74.40;;;;;;5055193;28;19911;-61
2022/04/27 11:18:56;;;;;;;10.07;4.85;;;22.10;71.90;;;;;;5055499;28;20025;-61
2022/04/27 11:21:33;;;;;;;9.45;5.28;;;21.20;71.60;;;;;;5073186;28;20040;-61
2022/04/27 11:24:04;;;;;;;6.55;4.95;;;20.80;74.30;;;;;;5055351;28;20103;-60
2022/04/27 11:26:31;;;;;;;8.48;4.70;;;20.50;75.20;;;;;;5055828;28;20021;-61
2022/04/27 11:28:57;;;;;;;9.18;5.28;;;21.00;76.70;;;;;;5073183;28;20021;-59
2022/04/27 11:31:23;;;;;;;7.90;4.57;;;21.40;76.20;;;;;;5073185;28;20020;-60
2022/04/27 11:33:49;;;;;;;8.43;5.35;;;21.80;74.90;;;;;;5073000;28;20021;-61
2022/04/27 11:36:24;;;;;;;8.98;5.63;;;22.00;73.90;;;;;;5073121;28;20048;-60
2022/04/27 11:38:51;;;;;;;7.50;4.18;;;21.80;72.00;;;;;;5055926;28;20075;-61
2022/04/27 11:41:23;;;;;;;6.50;4.25;;;21.80;73.80;;;;;;5055671;28;20035;-60
2022/04/27 11:43:50;;;;;;;8.63;4.82;;;22.10;75.50;;;;;;5055205;28;20024;-61
2022/04/27 11:46:16;;;;;;;5.47;4.70;;;22.20;75.90;;;;;;5054961;28;20033;-60
2022/04/27 11:48:49;;;;;;;6.28;4.03;;;22.20;74.50;;;;;;5058246;28;20063;-59
2022/04/27 11:51:15;;;;;;;7.13;3.90;;;21.60;75.90;;;;;;5058788;28;20016;-60
2022/04/27 11:53:47;;;;;;;7.25;4.45;;;21.50;75.10;;;;;;5076711;28;20483;-58
2022/04/27 11:56:18;;;;;;;7.65;4.40;;;21.60;75.00;;;;;;5077024;28;20025;-61
2022/04/27 11:58:45;;;;;;;8.55;5.07;;;21.80;75.10;;;;;;5058972;28;20115;-61
2022/04/27 12:01:18;;;;;;;6.47;4.57;;;22.00;75.50;;;;;;5076569;28;20056;-60
2022/04/27 12:03:44;;;;;;;6.13;4.40;;;21.90;74.20;;;;;;5058569;28;20028;-61
2022/04/27 12:06:21;;;;;;;8.82;3.97;;;22.00;73.40;;;;;;5076757;28;20039;-60
2022/04/27 12:08:47;;;;;;;5.03;3.50;;;22.10;73.90;;;;;;5058659;28;20024;-61
2022/04/27 12:11:23;;;;;;;8.07;3.92;;;22.00;74.30;;;;;;5076626;28;20031;-59
2022/04/27 12:13:49;;;;;;;8.85;3.55;;;22.00;73.70;;;;;;5058730;28;20032;-60
2022/04/27 12:16:15;;;;;;;5.25;4.00;;;21.90;74.70;;;;;;5058344;28;20041;-61
2022/04/27 12:18:54;;;;;;;5.22;3.00;;;21.20;70.80;;;;;;5058730;28;20036;-61
2022/04/27 12:21:27;;;;;;;7.85;3.67;;;20.90;72.70;;;;;;5076188;28;20036;-61
2022/04/27 12:23:56;;;;;;;6.95;3.25;;;20.60;70.80;;;;;;5059194;28;20115;-61
2022/04/27 12:26:23;;;;;;;4.97;3.22;;;20.80;74.60;;;;;;5076242;28;20070;-61
2022/04/27 12:28:49;;;;;;;8.15;3.47;;;21.00;75.50;;;;;;5076089;28;20372;-61
2022/04/27 12:31:16;;;;;;;6.95;3.42;;;21.20;74.20;;;;;;5076524;28;20455;-61
2022/04/27 12:33:48;;;;;;;7.13;2.75;;;21.30;73.30;;;;;;5076103;28;20021;-59
2022/04/27 12:39:07;;;;;;;6.93;3.42;;;21.30;72.00;;;;;;5076331;28;20047;-60
2022/04/27 12:41:40;;;;;;;5.32;2.65;;;21.40;71.10;;;;;;5075796;28;20028;-58
2022/04/27 12:44:10;;;;;;;3.75;2.83;;;21.30;72.60;;;;;;5075930;28;20024;-60
2022/04/27 12:46:40;;;;;;;8.02;3.40;;;20.90;70.90;;;;;;5058572;28;20020;-60
2022/04/27 12:49:07;;;;;;;5.07;3.05;;;20.70;72.10;;;;;;5057896;28;20025;-61
2022/04/27 12:51:35;;;;;;;8.55;3.20;;;20.90;70.80;;;;;;5057651;28;20025;-60
2022/04/27 12:54:02;;;;;;;6.55;2.97;;;20.80;69.40;;;;;;5058113;28;20088;-57
2022/04/27 12:56:35;;;;;;;7.05;3.25;;;20.20;71.60;;;;;;5058339;28;20035;-60
2022/04/27 12:59:03;;;;;;;4.43;2.58;;;19.70;70.80;;;;;;5057989;28;20077;-57
2022/04/27 13:01:29;;;;;;;4.15;2.67;;;19.40;71.00;;;;;;5057685;28;20467;-61
2022/04/27 13:03:55;;;;;;;6.57;3.92;;;19.30;72.90;;;;;;5057465;28;20115;-60
2022/04/27 13:06:22;;;;;;;4.68;3.05;;;19.50;70.70;;;;;;5075502;28;20491;-59
2022/04/27 13:08:49;;;;;;;3.95;2.70;;;19.60;71.30;;;;;;5057470;28;20024;-60